createdAt,value
2018-11-01T00:00:23.736Z,96.09
2018-11-01T00:02:51.396Z,95.81
2018-11-01T00:05:19.005Z,95.95
2018-11-01T00:07:46.656Z,96.05
2018-11-01T00:10:14.641Z,96.57
2018-11-01T00:12:43.329Z,96.49
2018-11-01T00:15:12.396Z,96.75
2018-11-01T00:17:40.000Z,96.56
2018-11-01T00:20:09.768Z,97.11
2018-11-01T00:22:37.500Z,97.09
2018-11-01T00:25:05.961Z,97.06
2018-11-01T00:27:33.549Z,97.20
2018-11-01T00:30:01.231Z,97.25
2018-11-01T00:32:28.836Z,97.50
2018-11-01T00:34:56.435Z,97.56
2018-11-01T00:37:24.075Z,97.39
2018-11-01T00:39:51.664Z,97.20
2018-11-01T00:42:19.271Z,97.22
2018-11-01T00:44:46.901Z,97.28
2018-11-01T00:47:14.554Z,97.28
2018-11-01T00:49:42.302Z,97.29
2018-11-01T00:52:09.901Z,97.43
2018-11-01T00:54:37.577Z,97.41
2018-11-01T00:57:05.533Z,97.44
2018-11-01T00:59:33.116Z,97.52
2018-11-01T01:02:00.731Z,97.38
2018-11-01T01:04:28.340Z,97.33
2018-11-01T01:06:55.996Z,97.33
2018-11-01T01:09:23.648Z,97.16
2018-11-01T01:11:51.253Z,96.94
2018-11-01T01:14:18.864Z,97.09
2018-11-01T01:16:46.479Z,97.39
2018-11-01T01:19:14.073Z,97.18
2018-11-01T01:21:41.724Z,97.08
2018-11-01T01:24:09.374Z,96.94
2018-11-01T01:26:36.957Z,96.88
2018-11-01T01:29:04.851Z,97.00
2018-11-01T01:31:32.464Z,96.74
2018-11-01T01:34:00.044Z,96.72
2018-11-01T01:36:27.695Z,96.83
2018-11-01T01:38:55.293Z,96.79
2018-11-01T01:41:22.886Z,96.72
2018-11-01T01:43:50.520Z,96.78
2018-11-01T01:46:18.106Z,96.48
2018-11-01T01:48:45.685Z,96.43
2018-11-01T01:51:13.322Z,96.30
2018-11-01T01:53:40.902Z,96.25
2018-11-01T01:56:25.495Z,96.23
2018-11-01T01:58:53.069Z,96.29
2018-11-01T02:01:20.647Z,96.38
2018-11-01T02:03:48.304Z,96.42
2018-11-01T02:06:15.904Z,96.28
2018-11-01T02:08:43.488Z,96.25
2018-11-01T02:11:11.132Z,96.02
2018-11-01T02:13:38.737Z,96.21
2018-11-01T02:16:06.357Z,96.42
2018-11-01T02:18:34.004Z,96.37
2018-11-01T02:21:01.601Z,96.34
2018-11-01T02:23:29.195Z,96.02
2018-11-01T02:25:56.827Z,95.96
2018-11-01T02:28:24.443Z,96.02
2018-11-01T02:30:52.077Z,95.99
2018-11-01T02:33:19.689Z,95.69
2018-11-01T02:35:47.278Z,95.46
2018-11-01T02:38:15.021Z,95.70
2018-11-01T02:40:42.537Z,95.41
2018-11-01T02:43:10.136Z,95.77
2018-11-01T02:45:37.774Z,95.61
2018-11-01T02:48:05.590Z,95.70
2018-11-01T02:50:33.226Z,95.56
2018-11-01T02:53:00.988Z,95.82
2018-11-01T02:55:28.615Z,95.54
2018-11-01T02:57:56.209Z,95.69
2018-11-01T03:00:23.839Z,95.87
2018-11-01T03:02:51.456Z,95.85
2018-11-01T03:05:19.095Z,96.18
2018-11-01T03:07:46.704Z,96.11
2018-11-01T03:10:14.848Z,96.16
2018-11-01T03:12:42.564Z,96.24
2018-11-01T03:15:12.214Z,96.43
2018-11-01T03:17:39.872Z,96.54
2018-11-01T03:20:08.163Z,96.44
2018-11-01T03:22:35.856Z,96.67
2018-11-01T03:25:03.617Z,96.36
2018-11-01T03:27:31.302Z,96.16
2018-11-01T03:29:59.068Z,96.49
2018-11-01T03:32:26.764Z,96.61
2018-11-01T03:34:54.389Z,96.10
2018-11-01T03:37:22.046Z,96.48
2018-11-01T03:39:49.712Z,96.41
2018-11-01T03:42:17.394Z,96.54
2018-11-01T03:44:45.115Z,96.58
2018-11-01T03:47:12.769Z,96.90
2018-11-01T03:49:40.392Z,96.46
2018-11-01T03:52:08.053Z,96.50
2018-11-01T03:54:35.632Z,96.61
2018-11-01T03:57:03.302Z,96.95
2018-11-01T03:59:30.914Z,96.91
2018-11-01T04:01:58.657Z,96.88
2018-11-01T04:04:26.256Z,96.74
2018-11-01T04:06:53.892Z,97.03
2018-11-01T04:09:21.472Z,96.92
2018-11-01T04:11:49.096Z,96.77
2018-11-01T04:14:16.705Z,96.99
2018-11-01T04:16:44.377Z,96.93
2018-11-01T04:19:12.067Z,97.03
2018-11-01T04:21:39.681Z,97.15
2018-11-01T04:24:07.295Z,97.01
2018-11-01T04:26:34.880Z,97.00
2018-11-01T04:29:02.594Z,96.92
2018-11-01T04:31:30.165Z,97.03
2018-11-01T04:33:57.765Z,96.86
2018-11-01T04:36:25.776Z,96.65
2018-11-01T04:38:53.815Z,96.68
2018-11-01T04:41:21.481Z,96.68
2018-11-01T04:43:49.473Z,96.82
2018-11-01T04:46:17.075Z,96.81
2018-11-01T04:48:44.737Z,96.89
2018-11-01T04:51:12.349Z,96.92
2018-11-01T04:53:39.957Z,96.89
2018-11-01T04:56:07.652Z,97.17
2018-11-01T04:58:35.368Z,97.13
2018-11-01T05:01:02.976Z,97.14
2018-11-01T05:03:30.621Z,97.19
2018-11-01T05:05:58.323Z,97.13
2018-11-01T05:08:25.924Z,97.27
2018-11-01T05:10:53.525Z,97.50
2018-11-01T05:13:21.267Z,97.49
2018-11-01T05:15:48.857Z,97.34
2018-11-01T05:18:16.453Z,97.36
2018-11-01T05:20:44.108Z,97.54
2018-11-01T05:23:11.709Z,97.31
2018-11-01T05:25:39.351Z,97.45
2018-11-01T05:28:06.992Z,97.48
2018-11-01T05:30:34.712Z,97.66
2018-11-01T05:33:02.324Z,97.63
2018-11-01T05:35:30.010Z,97.66
2018-11-01T05:37:57.761Z,97.70
2018-11-01T05:40:25.478Z,97.85
2018-11-01T05:42:53.174Z,97.54
2018-11-01T05:45:20.917Z,97.42
2018-11-01T05:47:48.593Z,97.61
2018-11-01T05:50:16.294Z,97.37
2018-11-01T05:52:44.001Z,97.44
2018-11-01T05:55:11.729Z,97.56
2018-11-01T05:57:39.438Z,97.23
2018-11-01T06:00:09.373Z,97.19
2018-11-01T06:02:38.552Z,97.21
2018-11-01T06:05:07.091Z,96.92
2018-11-01T06:07:43.517Z,96.65
2018-11-01T06:10:11.327Z,96.50
2018-11-01T06:12:39.025Z,96.53
2018-11-01T06:15:08.033Z,96.51
2018-11-01T06:17:35.747Z,96.45
2018-11-01T06:20:03.747Z,96.70
2018-11-01T06:22:31.481Z,96.52
2018-11-01T06:24:59.220Z,96.87
2018-11-01T06:27:26.933Z,96.99
2018-11-01T06:29:54.645Z,96.96
2018-11-01T06:32:22.400Z,96.85
2018-11-01T06:34:52.466Z,97.02
2018-11-01T06:37:20.243Z,97.19
2018-11-01T06:39:47.958Z,97.18
2018-11-01T06:42:15.706Z,97.17
2018-11-01T06:44:43.463Z,97.33
2018-11-01T06:47:11.142Z,97.24
2018-11-01T06:49:38.967Z,97.41
2018-11-01T06:52:06.802Z,97.52
2018-11-01T06:54:34.521Z,97.69
2018-11-01T06:57:02.491Z,97.68
2018-11-01T06:59:30.332Z,97.39
2018-11-01T07:01:57.895Z,97.27
2018-11-01T07:04:25.630Z,97.03
2018-11-01T07:06:53.327Z,96.81
2018-11-01T07:09:21.038Z,96.86
2018-11-01T07:11:48.716Z,96.93
2018-11-01T07:14:16.435Z,96.85
2018-11-01T07:16:44.134Z,97.00
2018-11-01T07:19:11.843Z,96.94
2018-11-01T07:21:39.542Z,97.22
2018-11-01T07:24:07.235Z,97.02
2018-11-01T07:26:35.031Z,97.01
2018-11-01T07:29:02.781Z,96.84
2018-11-01T07:31:30.492Z,96.79
2018-11-01T07:33:58.206Z,96.76
2018-11-01T07:36:25.887Z,96.80
2018-11-01T07:38:53.595Z,96.87
2018-11-01T07:41:21.347Z,96.59
2018-11-01T07:43:49.357Z,96.47
2018-11-01T07:46:17.319Z,96.18
2018-11-01T07:48:45.145Z,96.30
2018-11-01T07:51:13.158Z,96.16
2018-11-01T07:53:40.881Z,96.32
2018-11-01T07:56:08.586Z,96.50
2018-11-01T07:58:36.372Z,96.45
2018-11-01T08:01:04.054Z,96.52
2018-11-01T08:03:31.763Z,96.76
2018-11-01T08:05:59.662Z,97.12
2018-11-01T08:08:27.236Z,97.12
2018-11-01T08:10:54.965Z,97.01
2018-11-01T08:13:22.697Z,97.07
2018-11-01T08:15:50.390Z,96.55
2018-11-01T08:18:18.076Z,96.21
2018-11-01T08:20:45.849Z,96.01
2018-11-01T08:23:13.559Z,95.44
2018-11-01T08:25:41.248Z,95.06
2018-11-01T08:28:09.062Z,94.83
2018-11-01T08:30:36.733Z,95.12
2018-11-01T08:33:04.533Z,95.56
2018-11-01T08:35:32.299Z,95.62
2018-11-01T08:37:59.998Z,95.53
2018-11-01T08:40:27.722Z,95.44
2018-11-01T08:42:55.411Z,95.82
2018-11-01T08:45:23.126Z,96.10
2018-11-01T08:47:50.841Z,96.04
2018-11-01T08:50:18.581Z,95.12
2018-11-01T08:52:46.261Z,95.70
2018-11-01T08:55:14.454Z,96.02
2018-11-01T08:57:43.397Z,96.44
2018-11-01T09:00:12.030Z,96.46
2018-11-01T09:02:40.303Z,96.39
2018-11-01T09:05:09.090Z,96.75
2018-11-01T09:07:37.273Z,96.76
2018-11-01T09:10:06.890Z,96.44
2018-11-01T09:12:34.599Z,96.23
2018-11-01T09:15:02.321Z,96.30
2018-11-01T09:17:30.032Z,96.21
2018-11-01T09:19:57.761Z,96.45
2018-11-01T09:22:25.594Z,95.91
2018-11-01T09:24:53.307Z,95.95
2018-11-01T09:27:21.047Z,95.76
2018-11-01T09:29:48.753Z,96.04
2018-11-01T09:32:16.459Z,96.24
2018-11-01T09:34:44.160Z,95.63
2018-11-01T09:37:11.857Z,95.42
2018-11-01T09:39:39.531Z,95.59
2018-11-01T09:42:07.925Z,95.62
2018-11-01T09:44:35.678Z,95.22
2018-11-01T09:47:03.706Z,94.63
2018-11-01T09:49:31.067Z,94.36
2018-11-01T09:51:58.795Z,93.71
2018-11-01T09:54:26.605Z,94.00
2018-11-01T09:56:54.280Z,94.12
2018-11-01T09:59:22.023Z,93.42
2018-11-01T10:01:49.702Z,94.31
2018-11-01T10:04:17.435Z,94.50
2018-11-01T10:06:45.198Z,94.42
2018-11-01T10:09:12.938Z,94.81
2018-11-01T10:11:40.644Z,92.97
2018-11-01T10:14:08.755Z,93.05
2018-11-01T10:16:37.284Z,92.45
2018-11-01T10:19:05.678Z,92.21
2018-11-01T10:21:33.410Z,93.23
2018-11-01T10:24:01.138Z,93.91
2018-11-01T10:26:28.839Z,94.33
2018-11-01T10:28:56.562Z,93.69
2018-11-01T10:31:24.410Z,92.35
2018-11-01T10:33:52.162Z,93.31
2018-11-01T10:36:19.869Z,90.99
2018-11-01T10:38:47.582Z,89.51
2018-11-01T10:41:15.303Z,91.53
2018-11-01T10:43:43.051Z,91.91
2018-11-01T10:46:10.761Z,91.14
2018-11-01T10:48:38.502Z,90.82
2018-11-01T10:51:06.550Z,90.91
2018-11-01T10:53:34.555Z,91.33
2018-11-01T10:56:02.405Z,87.22
2018-11-01T10:58:30.103Z,89.08
2018-11-01T11:01:03.548Z,88.32
2018-11-01T11:03:31.242Z,88.69
2018-11-01T11:05:58.951Z,88.22
2018-11-01T11:08:26.638Z,87.95
2018-11-01T11:10:54.490Z,87.74
2018-11-01T11:13:22.166Z,86.64
2018-11-01T11:15:49.843Z,86.60
2018-11-01T11:18:17.579Z,84.98
2018-11-01T11:20:45.428Z,83.69
2018-11-01T11:23:12.987Z,85.05
2018-11-01T11:25:40.716Z,85.72
2018-11-01T11:28:08.435Z,85.57
2018-11-01T11:30:36.212Z,85.76
2018-11-01T11:33:03.907Z,84.21
2018-11-01T11:35:31.680Z,84.56
2018-11-01T11:37:59.343Z,83.65
2018-11-01T11:40:27.066Z,83.74
2018-11-01T11:42:54.759Z,82.69
2018-11-01T11:45:22.442Z,83.05
2018-11-01T11:47:50.179Z,82.15
2018-11-01T11:50:17.877Z,82.90
2018-11-01T11:52:45.965Z,83.63
2018-11-01T11:55:13.706Z,83.88
2018-11-01T11:57:41.393Z,84.67
2018-11-01T12:00:12.564Z,84.11
2018-11-01T12:02:40.295Z,83.16
2018-11-01T12:05:08.301Z,84.14
2018-11-01T12:07:36.109Z,84.69
2018-11-01T12:10:04.114Z,84.92
2018-11-01T12:12:31.823Z,83.52
2018-11-01T12:14:59.539Z,84.00
2018-11-01T12:17:27.259Z,84.11
2018-11-01T12:19:54.962Z,84.30
2018-11-01T12:22:22.779Z,83.43
2018-11-01T12:24:50.400Z,83.25
2018-11-01T12:27:18.108Z,84.30
2018-11-01T12:29:45.847Z,85.02
2018-11-01T12:32:13.554Z,85.06
2018-11-01T12:34:41.269Z,85.48
2018-11-01T12:37:08.984Z,86.37
2018-11-01T12:39:36.651Z,87.20
2018-11-01T12:42:04.444Z,87.69
2018-11-01T12:44:32.119Z,87.35
2018-11-01T12:46:59.845Z,87.54
2018-11-01T12:49:27.705Z,87.37
2018-11-01T12:51:55.429Z,87.53
2018-11-01T12:54:23.145Z,86.26
2018-11-01T12:56:50.881Z,86.37
2018-11-01T12:59:18.575Z,86.43
2018-11-01T13:01:46.251Z,86.06
2018-11-01T13:04:14.005Z,86.17
2018-11-01T13:06:41.722Z,86.21
2018-11-01T13:09:11.806Z,86.06
2018-11-01T13:11:56.452Z,85.80
2018-11-01T13:14:24.360Z,86.15
2018-11-01T13:16:52.254Z,86.38
2018-11-01T13:19:20.211Z,86.32
2018-11-01T13:21:48.115Z,86.70
2018-11-01T13:24:16.041Z,86.46
2018-11-01T13:26:43.778Z,86.89
2018-11-01T13:29:11.490Z,86.78
2018-11-01T13:31:39.219Z,87.12
2018-11-01T13:34:06.998Z,86.96
2018-11-01T13:36:34.693Z,86.82
2018-11-01T13:39:02.521Z,87.75
2018-11-01T13:41:30.267Z,87.42
2018-11-01T13:43:58.166Z,88.18
2018-11-01T13:46:26.800Z,88.29
2018-11-01T13:48:54.546Z,88.40
2018-11-01T13:51:22.233Z,88.20
2018-11-01T13:53:49.971Z,87.92
2018-11-01T13:56:17.689Z,88.47
2018-11-01T13:58:45.418Z,88.73
2018-11-01T14:01:13.147Z,88.62
2018-11-01T14:03:40.840Z,89.11
2018-11-01T14:06:08.587Z,89.77
2018-11-01T14:08:36.311Z,90.08
2018-11-01T14:11:04.263Z,90.46
2018-11-01T14:13:32.137Z,90.11
2018-11-01T14:15:59.706Z,89.46
2018-11-01T14:18:27.427Z,89.33
2018-11-01T14:20:55.151Z,89.52
2018-11-01T14:23:22.899Z,90.16
2018-11-01T14:25:50.591Z,90.75
2018-11-01T14:28:18.283Z,91.28
2018-11-01T14:30:46.009Z,91.39
2018-11-01T14:33:13.775Z,91.36
2018-11-01T14:35:41.462Z,90.96
2018-11-01T14:38:09.233Z,90.66
2018-11-01T14:40:36.947Z,91.81
2018-11-01T14:43:05.118Z,91.73
2018-11-01T14:45:32.846Z,91.65
2018-11-01T14:48:00.570Z,91.32
2018-11-01T14:50:28.307Z,91.03
2018-11-01T14:52:56.844Z,90.81
2018-11-01T14:55:24.855Z,91.15
2018-11-01T14:57:52.960Z,91.65
2018-11-01T15:00:19.265Z,91.89
2018-11-01T15:02:46.968Z,92.55
2018-11-01T15:05:14.659Z,92.90
2018-11-01T15:07:42.387Z,92.71
2018-11-01T15:10:12.061Z,92.23
2018-11-01T15:12:39.767Z,92.25
2018-11-01T15:15:08.195Z,91.75
2018-11-01T15:17:35.949Z,92.03
2018-11-01T15:20:03.994Z,91.82
2018-11-01T15:22:31.745Z,92.08
2018-11-01T15:24:59.470Z,92.87
2018-11-01T15:27:27.454Z,93.75
2018-11-01T15:29:55.248Z,93.27
2018-11-01T15:32:28.809Z,92.85
2018-11-01T15:34:57.310Z,93.06
2018-11-01T15:37:25.145Z,92.70
2018-11-01T15:39:53.417Z,92.49
2018-11-01T15:42:21.059Z,92.37
2018-11-01T15:44:48.897Z,93.04
2018-11-01T15:47:16.607Z,92.99
2018-11-01T15:49:44.830Z,92.96
2018-11-01T15:52:12.588Z,92.75
2018-11-01T15:54:40.294Z,92.74
2018-11-01T15:57:08.024Z,92.77
2018-11-01T15:59:35.790Z,93.12
2018-11-01T16:02:03.555Z,94.28
2018-11-01T16:04:31.278Z,93.59
2018-11-01T16:06:59.062Z,93.67
2018-11-01T16:09:26.789Z,94.03
2018-11-01T16:11:54.506Z,93.59
2018-11-01T16:14:22.259Z,93.49
2018-11-01T16:16:50.042Z,93.46
2018-11-01T16:19:17.766Z,93.58
2018-11-01T16:21:45.561Z,93.79
2018-11-01T16:24:13.299Z,93.98
2018-11-01T16:26:40.970Z,93.60
2018-11-01T16:29:08.701Z,93.33
2018-11-01T16:31:36.439Z,93.28
2018-11-01T16:34:04.237Z,92.97
2018-11-01T16:36:32.049Z,92.73
2018-11-01T16:38:59.698Z,93.28
2018-11-01T16:41:27.415Z,93.80
2018-11-01T16:43:55.121Z,93.67
2018-11-01T16:46:22.858Z,93.64
2018-11-01T16:48:50.709Z,93.82
2018-11-01T16:51:18.437Z,94.13
2018-11-01T16:53:46.154Z,94.67
2018-11-01T16:56:13.882Z,94.78
2018-11-01T16:58:41.591Z,94.72
2018-11-01T17:01:09.368Z,94.82
2018-11-01T17:03:37.086Z,94.62
2018-11-01T17:06:06.089Z,94.95
2018-11-01T17:08:33.917Z,94.68
2018-11-01T17:11:01.611Z,94.90
2018-11-01T17:13:29.331Z,94.29
2018-11-01T17:15:57.065Z,94.84
2018-11-01T17:18:24.795Z,94.64
2018-11-01T17:20:52.533Z,94.46
2018-11-01T17:23:20.302Z,94.39
2018-11-01T17:25:48.113Z,95.11
2018-11-01T17:28:16.288Z,95.14
2018-11-01T17:30:44.063Z,95.16
2018-11-01T17:33:11.785Z,95.20
2018-11-01T17:35:39.533Z,95.06
2018-11-01T17:38:07.272Z,94.99
2018-11-01T17:40:35.006Z,95.11
2018-11-01T17:43:02.726Z,95.08
2018-11-01T17:45:30.480Z,95.20
2018-11-01T17:47:58.197Z,95.65
2018-11-01T17:50:25.923Z,95.36
2018-11-01T17:52:53.637Z,95.78
2018-11-01T17:55:21.391Z,95.43
2018-11-01T17:57:49.150Z,95.82
2018-11-01T18:00:17.165Z,95.50
2018-11-01T18:02:45.093Z,95.64
2018-11-01T18:05:13.016Z,95.35
2018-11-01T18:07:41.102Z,94.65
2018-11-01T18:10:10.542Z,94.57
2018-11-01T18:12:38.227Z,94.92
2018-11-01T18:15:06.762Z,95.18
2018-11-01T18:17:34.462Z,95.20
2018-11-01T18:20:02.162Z,95.24
2018-11-01T18:22:29.874Z,95.21
2018-11-01T18:24:57.598Z,95.31
2018-11-01T18:27:25.564Z,95.22
2018-11-01T18:29:53.283Z,95.13
2018-11-01T18:32:20.992Z,95.65
2018-11-01T18:34:48.749Z,95.97
2018-11-01T18:37:16.509Z,95.36
2018-11-01T18:39:44.190Z,95.62
2018-11-01T18:42:11.908Z,96.12
2018-11-01T18:44:39.643Z,95.84
2018-11-01T18:47:07.396Z,95.79
2018-11-01T18:49:35.152Z,95.58
2018-11-01T18:52:02.969Z,95.33
2018-11-01T18:54:30.730Z,95.75
2018-11-01T18:56:58.427Z,95.45
2018-11-01T18:59:26.127Z,95.52
2018-11-01T19:01:53.886Z,95.37
2018-11-01T19:04:21.574Z,95.32
2018-11-01T19:06:49.324Z,94.93
2018-11-01T19:09:17.101Z,95.20
2018-11-01T19:11:44.829Z,95.87
2018-11-01T19:14:12.625Z,95.40
2018-11-01T19:16:40.302Z,95.71
2018-11-01T19:19:08.051Z,95.47
2018-11-01T19:21:35.840Z,95.25
2018-11-01T19:24:03.558Z,95.33
2018-11-01T19:26:31.322Z,95.72
2018-11-01T19:28:59.063Z,95.75
2018-11-01T19:31:26.746Z,95.61
2018-11-01T19:33:54.473Z,95.28
2018-11-01T19:36:22.188Z,95.53
2018-11-01T19:38:49.908Z,95.49
2018-11-01T19:41:17.637Z,95.57
2018-11-01T19:43:45.374Z,95.20
2018-11-01T19:46:13.068Z,95.11
2018-11-01T19:48:40.936Z,95.17
2018-11-01T19:51:08.744Z,94.98
2018-11-01T19:53:36.562Z,95.16
2018-11-01T19:56:04.474Z,95.17
2018-11-01T19:58:32.154Z,95.26
2018-11-01T20:00:59.861Z,95.16
2018-11-01T20:03:31.161Z,94.83
2018-11-01T20:05:59.202Z,94.82
2018-11-01T20:08:27.031Z,94.91
2018-11-01T20:10:54.713Z,94.74
2018-11-01T20:13:22.421Z,95.18
2018-11-01T20:15:50.141Z,94.91
2018-11-01T20:18:17.868Z,95.06
2018-11-01T20:20:45.569Z,94.79
2018-11-01T20:23:13.308Z,95.29
2018-11-01T20:25:41.272Z,94.78
2018-11-01T20:28:08.877Z,95.13
2018-11-01T20:30:36.642Z,95.19
2018-11-01T20:33:04.494Z,95.29
2018-11-01T20:35:32.190Z,95.69
2018-11-01T20:37:59.990Z,95.61
2018-11-01T20:40:27.694Z,96.06
2018-11-01T20:42:55.435Z,96.37
2018-11-01T20:45:23.160Z,96.50
2018-11-01T20:47:50.849Z,96.86
2018-11-01T20:50:18.643Z,96.64
2018-11-01T20:52:46.387Z,96.95
2018-11-01T20:55:14.193Z,96.75
2018-11-01T20:57:42.000Z,96.51
2018-11-01T21:00:11.258Z,96.65
2018-11-01T21:02:39.026Z,96.49
2018-11-01T21:05:06.927Z,96.60
2018-11-01T21:07:34.662Z,96.58
2018-11-01T21:10:02.666Z,96.54
2018-11-01T21:12:30.366Z,96.25
2018-11-01T21:14:58.181Z,95.77
2018-11-01T21:17:25.898Z,95.71
2018-11-01T21:19:53.606Z,95.81
2018-11-01T21:22:21.357Z,95.65
2018-11-01T21:24:49.061Z,95.73
2018-11-01T21:27:16.789Z,95.92
2018-11-01T21:29:44.564Z,95.69
2018-11-01T21:32:12.320Z,95.64
2018-11-01T21:34:40.021Z,95.46
2018-11-01T21:37:08.061Z,95.71
2018-11-01T21:39:35.778Z,95.35
2018-11-01T21:42:03.843Z,95.56
2018-11-01T21:44:31.597Z,95.90
2018-11-01T21:46:59.319Z,96.10
2018-11-01T21:49:27.050Z,96.16
2018-11-01T21:51:54.773Z,95.73
2018-11-01T21:54:22.494Z,96.20
2018-11-01T21:56:50.226Z,96.26
2018-11-01T21:59:17.930Z,96.48
2018-11-01T22:01:45.659Z,96.45
2018-11-01T22:04:13.421Z,96.97
2018-11-01T22:06:41.167Z,96.63
2018-11-01T22:09:09.098Z,96.90
2018-11-01T22:11:37.120Z,96.73
2018-11-01T22:14:04.985Z,96.69
2018-11-01T22:16:32.693Z,97.21
2018-11-01T22:19:00.426Z,97.18
2018-11-01T22:21:28.172Z,97.25
2018-11-01T22:23:55.921Z,97.23
2018-11-01T22:26:23.681Z,97.57
2018-11-01T22:28:51.600Z,96.93
2018-11-01T22:31:19.243Z,97.15
2018-11-01T22:33:46.995Z,97.41
2018-11-01T22:36:14.687Z,96.95
2018-11-01T22:38:42.441Z,97.01
2018-11-01T22:41:10.160Z,97.20
2018-11-01T22:43:37.872Z,97.11
2018-11-01T22:46:05.618Z,97.02
2018-11-01T22:48:33.361Z,97.41
2018-11-01T22:51:01.062Z,97.17
2018-11-01T22:53:28.791Z,97.30
2018-11-01T22:55:56.548Z,97.26
2018-11-01T22:58:24.279Z,97.31
2018-11-01T23:00:51.971Z,97.10
2018-11-01T23:03:19.729Z,97.16
2018-11-01T23:05:47.414Z,97.01
2018-11-01T23:08:15.134Z,97.32
2018-11-01T23:10:42.881Z,96.78
2018-11-01T23:13:10.601Z,96.96
2018-11-01T23:15:38.287Z,97.05
2018-11-01T23:18:06.056Z,97.10
2018-11-01T23:20:33.774Z,96.87
2018-11-01T23:23:01.481Z,97.11
2018-11-01T23:25:29.206Z,96.73
2018-11-01T23:27:56.925Z,97.10
2018-11-01T23:30:24.649Z,96.96
2018-11-01T23:32:52.558Z,96.66
2018-11-01T23:35:20.253Z,96.85
2018-11-01T23:37:53.478Z,96.43
2018-11-01T23:40:26.784Z,96.39
2018-11-01T23:43:00.070Z,96.79
2018-11-01T23:45:33.373Z,96.51
2018-11-01T23:48:00.518Z,96.57
2018-11-01T23:50:34.127Z,97.09
2018-11-01T23:53:37.788Z,96.99
2018-11-01T23:56:05.513Z,96.72
2018-11-01T23:58:33.241Z,96.76
